Time;durP1;ratioP1;P1;durP2;ratioP2;P2;SDS_P1;SDS_P2;PMS_P1;PMS_P2;Temp;Humidity;BMP_temperature;BMP_pressure;BME280_temperature;BME280_humidity;BME280_pressure;Samples;Min_cycle;Max_cycle;Signal;HPM_P1;HPM_P2
2023/04/21 00:02:09;;;;;;;;;20.00;16.50;;;;;9.34;55.83;100478.28;5076264;28;45574;-79
2023/04/21 00:04:35;;;;;;;;;20.00;17.00;;;;;9.31;55.93;100481.91;5076642;28;46593;-84
2023/04/21 00:07:03;;;;;;;;;24.50;19.50;;;;;9.25;55.99;100480.56;5076090;28;45720;-84
2023/04/21 00:09:28;;;;;;;;;21.00;19.00;;;;;9.21;56.36;100481.72;5075889;28;45597;-82
2023/04/21 00:11:54;;;;;;;;;21.25;20.00;;;;;9.17;56.38;100474.19;5075625;28;45805;-85
2023/04/21 00:17:41;;;;;;;;;28.25;23.00;;;;;9.06;57.00;100474.91;5075382;28;45718;-82
2023/04/21 00:20:09;;;;;;;;;24.50;21.75;;;;;9.02;56.99;100465.56;5075251;28;45518;-80
2023/04/21 00:22:34;;;;;;;;;24.00;20.00;;;;;8.96;57.12;100473.81;5075276;28;45619;-86
2023/04/21 00:25:00;;;;;;;;;20.25;19.00;;;;;8.88;57.24;100463.06;5074895;28;45723;-87
2023/04/21 00:27:25;;;;;;;;;24.50;23.00;;;;;8.85;57.45;100464.09;5075111;28;45612;-83
2023/04/21 00:33:12;;;;;;;;;23.75;19.25;;;;;8.84;57.79;100461.59;5075448;28;45551;-85
2023/04/21 00:35:37;;;;;;;;;27.75;22.75;;;;;8.80;57.80;100449.66;5075144;28;45480;-78
2023/04/21 00:38:03;;;;;;;;;19.00;17.25;;;;;8.81;57.70;100454.78;5074855;28;45612;-75
2023/04/21 00:40:28;;;;;;;;;23.25;17.25;;;;;8.83;57.86;100445.09;5075374;28;45730;-82
2023/04/21 00:42:54;;;;;;;;;16.00;15.50;;;;;8.83;57.70;100439.84;5074773;28;45470;-80
2023/04/21 00:45:19;;;;;;;;;26.75;19.00;;;;;8.88;57.91;100436.94;5074692;28;45734;-83
2023/04/21 00:47:44;;;;;;;;;20.50;18.75;;;;;8.91;57.84;100439.31;5074823;28;45607;-82
2023/04/21 00:50:11;;;;;;;;;20.50;17.25;;;;;8.92;57.67;100432.34;5073462;28;45643;-81
2023/04/21 00:52:38;;;;;;;;;20.75;17.00;;;;;8.90;57.72;100436.84;5075713;28;45659;-86
2023/04/21 00:55:04;;;;;;;;;23.00;21.00;;;;;8.89;57.81;100430.78;5058823;28;46486;-86
2023/04/21 00:57:30;;;;;;;;;22.00;21.00;;;;;8.87;57.83;100422.19;5081893;28;46134;-88
2023/04/21 01:03:18;;;;;;;;;26.50;20.25;;;;;8.86;58.18;100423.13;5076194;28;45683;-85
2023/04/21 01:05:43;;;;;;;;;23.00;19.50;;;;;8.82;58.27;100427.72;5075887;28;46191;-80
2023/04/21 01:08:08;;;;;;;;;23.25;21.00;;;;;8.79;58.49;100421.88;5075013;28;45710;-82
2023/04/21 01:10:34;;;;;;;;;27.25;21.50;;;;;8.76;58.47;100419.47;5074797;28;45549;-79
2023/04/21 01:12:59;;;;;;;;;26.25;23.00;;;;;8.70;58.38;100414.63;5077314;28;45448;-81
2023/04/21 01:18:47;;;;;;;;;25.00;22.75;;;;;8.67;58.52;100409.63;5078176;28;45665;-84
2023/04/21 01:21:13;;;;;;;;;26.75;22.00;;;;;8.66;58.70;100408.78;5074895;28;45564;-82
2023/04/21 01:23:42;;;;;;;;;25.75;18.75;;;;;8.68;58.59;100408.69;5076497;28;45617;-87
2023/04/21 01:26:07;;;;;;;;;26.50;22.00;;;;;8.64;58.69;100402.81;5076647;28;46298;-82
2023/04/21 01:28:33;;;;;;;;;24.50;22.00;;;;;8.65;58.89;100412.34;5075278;28;45506;-87
2023/04/21 01:30:59;;;;;;;;;22.50;18.75;;;;;8.63;58.92;100406.41;5074496;28;45525;-83
2023/04/21 01:33:24;;;;;;;;;26.25;22.75;;;;;8.61;58.93;100403.03;5072570;28;45848;-83
2023/04/21 01:35:50;;;;;;;;;22.50;18.00;;;;;8.58;58.88;100405.88;5075593;28;45664;-82
2023/04/21 01:38:17;;;;;;;;;21.00;17.75;;;;;8.61;59.06;100394.38;5075454;28;47281;-79
2023/04/21 01:40:46;;;;;;;;;25.50;19.50;;;;;8.59;59.09;100404.91;5076415;28;45789;-81
2023/04/21 01:43:12;;;;;;;;;25.00;23.75;;;;;8.58;59.36;100403.25;5089872;27;45626;-77
2023/04/21 01:48:59;;;;;;;;;23.50;22.50;;;;;8.55;59.35;100387.78;5073609;28;45680;-80
2023/04/21 01:51:26;;;;;;;;;28.25;21.50;;;;;8.55;59.40;100390.38;5073444;28;45659;-88
2023/04/21 01:53:52;;;;;;;;;21.25;20.50;;;;;8.53;59.72;100381.00;5074087;28;45618;-86
2023/04/21 01:56:17;;;;;;;;;24.75;22.75;;;;;8.54;59.36;100386.09;5074178;28;46255;-85
2023/04/21 01:58:43;;;;;;;;;27.25;24.25;;;;;8.60;59.41;100387.47;5076011;28;45586;-79
2023/04/21 02:04:30;;;;;;;;;30.25;22.00;;;;;8.65;59.53;100377.56;5075433;28;45688;-87
2023/04/21 02:06:55;;;;;;;;;30.75;21.50;;;;;8.68;59.34;100380.81;5072537;28;46939;-79
2023/04/21 02:09:21;;;;;;;;;26.75;23.00;;;;;8.70;59.34;100376.31;5073912;28;46122;-75
2023/04/21 02:11:46;;;;;;;;;24.75;22.00;;;;;8.64;59.38;100370.66;5075388;28;45922;-82
2023/04/21 02:14:12;;;;;;;;;21.00;17.75;;;;;8.67;59.49;100370.47;5075318;28;45873;-83
2023/04/21 02:16:37;;;;;;;;;24.75;23.75;;;;;8.67;59.46;100363.47;5077230;28;46518;-80
2023/04/21 02:19:03;;;;;;;;;30.50;23.75;;;;;8.66;59.32;100361.78;5078737;28;45573;-86
2023/04/21 02:21:28;;;;;;;;;27.25;23.50;;;;;8.70;59.34;100365.03;5084078;28;45494;-81
2023/04/21 02:23:54;;;;;;;;;26.75;22.75;;;;;8.74;59.46;100364.75;5082278;28;45579;-85
2023/04/21 02:26:20;;;;;;;;;26.25;23.50;;;;;8.78;59.38;100370.59;5081359;28;45643;-83
2023/04/21 02:28:46;;;;;;;;;26.25;23.25;;;;;8.72;59.34;100361.38;5077852;28;45990;-85
2023/04/21 02:34:33;;;;;;;;;29.50;25.00;;;;;8.72;59.57;100369.22;5077825;28;45585;-81
2023/04/21 02:36:59;;;;;;;;;26.25;23.00;;;;;8.70;59.60;100363.25;5077359;28;45575;-82
2023/04/21 02:39:25;;;;;;;;;21.25;16.75;;;;;8.72;59.52;100365.75;5078300;28;46406;-82
2023/04/21 02:41:50;;;;;;;;;26.50;23.50;;;;;8.71;59.32;100361.47;5078767;28;45572;-81
2023/04/21 02:44:16;;;;;;;;;23.75;18.75;;;;;8.71;59.49;100361.47;5078949;28;45715;-78
2023/04/21 02:50:03;;;;;;;;;20.75;18.75;;;;;8.72;59.68;100358.78;5080431;28;46144;-84
2023/04/21 02:52:29;;;;;;;;;24.25;22.00;;;;;8.71;59.67;100356.25;5082094;28;45469;-82
2023/04/21 02:54:54;;;;;;;;;27.25;21.75;;;;;8.74;59.69;100358.69;5078373;28;45809;-79
2023/04/21 02:57:19;;;;;;;;;29.00;25.75;;;;;8.71;59.79;100348.41;5079133;28;46084;-82
2023/04/21 02:59:45;;;;;;;;;29.00;24.25;;;;;8.70;59.60;100351.97;5059720;28;46838;-84
2023/04/21 03:02:10;;;;;;;;;26.50;23.50;;;;;8.71;59.74;100344.03;5080655;28;45679;-81
2023/04/21 03:04:36;;;;;;;;;24.50;21.25;;;;;8.71;59.83;100338.81;5079526;28;45838;-84
2023/04/21 03:07:02;;;;;;;;;28.25;23.25;;;;;8.74;59.67;100345.63;5077791;28;45716;-87
2023/04/21 03:09:27;;;;;;;;;35.50;26.00;;;;;8.71;59.53;100338.81;5059129;28;48381;-84
2023/04/21 03:11:52;;;;;;;;;30.75;23.50;;;;;8.73;59.72;100336.09;5079021;28;45689;-82
2023/04/21 03:14:18;;;;;;;;;29.25;23.00;;;;;8.76;59.86;100341.09;5077578;28;45604;-84
2023/04/21 03:20:07;;;;;;;;;28.75;25.25;;;;;8.75;59.65;100332.44;5076216;28;45807;-87
2023/04/21 03:22:34;;;;;;;;;21.50;19.50;;;;;8.72;59.59;100323.97;5076688;28;45816;-83
2023/04/21 03:25:00;;;;;;;;;28.50;21.50;;;;;8.70;59.71;100326.69;5076744;28;45748;-88
2023/04/21 03:27:25;;;;;;;;;20.50;19.00;;;;;8.65;59.63;100326.16;5076644;28;45553;-87
2023/04/21 03:29:50;;;;;;;;;23.75;18.50;;;;;8.64;59.64;100327.09;5078541;28;46409;-81
2023/04/21 03:35:37;;;;;;;;;24.00;20.50;;;;;8.66;59.88;100324.41;5076090;28;45652;-83
2023/04/21 03:38:03;;;;;;;;;21.00;18.75;;;;;8.66;59.93;100333.06;5074276;28;47143;-81
2023/04/21 03:40:29;;;;;;;;;25.50;22.25;;;;;8.66;59.55;100327.00;5079111;28;46123;-77
2023/04/21 03:42:54;;;;;;;;;23.75;21.75;;;;;8.68;59.71;100327.75;5081038;28;45621;-80
2023/04/21 03:45:21;;;;;;;;;26.00;21.75;;;;;8.67;60.00;100326.91;5081011;28;45522;-80
2023/04/21 03:47:47;;;;;;;;;23.00;19.50;;;;;8.68;59.78;100325.97;5079258;28;45725;-82
2023/04/21 03:50:13;;;;;;;;;23.75;20.75;;;;;8.66;59.92;100325.22;5076016;28;46328;-82
2023/04/21 03:52:39;;;;;;;;;25.00;21.75;;;;;8.66;60.04;100327.84;5075761;28;45628;-79
2023/04/21 03:55:07;;;;;;;;;14.50;14.50;;;;;8.65;60.16;100328.78;5076977;28;45663;-83
2023/04/21 03:57:33;;;;;;;;;21.25;19.25;;;;;8.63;60.17;100320.22;5076965;28;45822;-82
2023/04/21 03:59:58;;;;;;;;;21.25;19.00;;;;;8.60;60.36;100315.19;5081190;28;46101;-77
2023/04/21 04:05:45;;;;;;;;;20.25;18.00;;;;;8.57;60.36;100310.19;5076359;28;45735;-86
2023/04/21 04:08:11;;;;;;;;;16.75;16.25;;;;;8.55;60.56;100303.41;5074034;28;48208;-87
2023/04/21 04:10:36;;;;;;;;;27.25;22.00;;;;;8.56;60.31;100311.13;5075288;28;46346;-83
2023/04/21 04:13:02;;;;;;;;;22.00;19.25;;;;;8.57;60.66;100306.75;5073671;28;45857;-87
2023/04/21 04:15:27;;;;;;;;;22.00;20.75;;;;;8.59;60.76;100300.47;5075329;28;45684;-86
2023/04/21 04:21:15;;;;;;;;;22.25;18.75;;;;;8.61;60.80;100306.44;5074804;28;45604;-75
2023/04/21 04:23:41;;;;;;;;;22.00;19.00;;;;;8.62;60.63;100307.28;5075244;28;45560;-85
2023/04/21 04:26:07;;;;;;;;;24.00;22.00;;;;;8.63;60.61;100303.72;5076854;28;45553;-86
2023/04/21 04:28:33;;;;;;;;;22.75;18.75;;;;;8.67;60.82;100310.41;5076430;28;46334;-86
2023/04/21 04:30:59;;;;;;;;;18.00;15.00;;;;;8.69;60.69;100305.91;5075578;28;45628;-83
2023/04/21 04:33:25;;;;;;;;;28.75;22.00;;;;;8.67;60.67;100306.03;5075034;28;45642;-84
2023/04/21 04:35:51;;;;;;;;;24.00;18.50;;;;;8.67;60.86;100300.78;5075193;28;45582;-87
2023/04/21 04:38:16;;;;;;;;;22.75;19.50;;;;;8.67;60.62;100300.78;5075345;28;46367;-86
2023/04/21 04:40:42;;;;;;;;;14.25;13.00;;;;;8.69;61.02;100296.28;5076565;28;45546;-80
2023/04/21 04:43:09;;;;;;;;;24.50;21.25;;;;;8.69;61.10;100300.69;5078118;28;45604;-81
2023/04/21 04:45:35;;;;;;;;;22.00;19.50;;;;;8.66;61.11;100296.50;5079398;28;45616;-87
2023/04/21 04:51:22;;;;;;;;;22.25;18.25;;;;;8.70;61.32;100297.97;5078745;27;45561;-83
2023/04/21 04:53:48;;;;;;;;;19.75;15.00;;;;;8.73;61.32;100302.16;5077733;28;45510;-87
2023/04/21 04:56:13;;;;;;;;;22.75;20.75;;;;;8.74;61.49;100307.28;5079512;28;45474;-88
2023/04/21 04:58:39;;;;;;;;;23.00;22.50;;;;;8.75;61.33;100308.09;5077019;28;45638;-81
2023/04/21 05:01:15;;;;;;;;;29.25;24.25;;;;;8.78;61.48;100298.28;5074109;28;45541;-78
2023/04/21 05:07:02;;;;;;;;;26.25;23.00;;;;;8.75;61.50;100305.47;5074178;28;45540;-79
2023/04/21 05:09:27;;;;;;;;;22.50;18.50;;;;;8.75;61.40;100300.25;5073709;28;46574;-78
2023/04/21 05:11:53;;;;;;;;;26.00;23.50;;;;;8.77;61.57;100303.59;5073290;28;46288;-75
2023/04/21 05:14:18;;;;;;;;;18.50;15.25;;;;;8.77;61.43;100293.16;5073568;28;45631;-81
2023/04/21 05:16:43;;;;;;;;;22.50;18.50;;;;;8.80;61.68;100292.94;5076579;28;45712;-75
2023/04/21 05:19:10;;;;;;;;;26.00;19.00;;;;;8.83;61.59;100297.97;5073762;28;46488;-78
2023/04/21 05:21:36;;;;;;;;;28.25;22.75;;;;;8.82;61.70;100298.91;5073386;28;46277;-78
2023/04/21 05:24:01;;;;;;;;;36.00;28.25;;;;;8.86;61.56;100292.50;5073422;28;45681;-76
2023/04/21 05:26:28;;;;;;;;;30.75;24.00;;;;;8.90;61.58;100295.78;5073803;28;45837;-75
2023/04/21 05:28:55;;;;;;;;;25.75;23.25;;;;;8.93;61.30;100287.72;5089046;27;47568;-75
2023/04/21 05:31:21;;;;;;;;;25.75;24.25;;;;;8.94;61.59;100290.22;5054485;28;46738;-76
2023/04/21 05:37:11;;;;;;;;;34.25;28.00;;;;;9.02;61.74;100295.75;5073672;28;45662;-78
2023/04/21 05:39:36;;;;;;;;;28.25;24.25;;;;;9.06;61.65;100297.22;5073577;28;46493;-76
2023/04/21 05:42:02;;;;;;;;;23.25;21.00;;;;;9.09;61.40;100301.38;5073593;28;46161;-78
2023/04/21 05:44:27;;;;;;;;;26.00;22.00;;;;;9.09;61.11;100304.00;5073784;28;45486;-76
2023/04/21 05:46:53;;;;;;;;;20.25;19.00;;;;;9.08;61.15;100299.69;5073633;28;45452;-75
2023/04/21 05:52:39;;;;;;;;;28.75;20.25;;;;;9.07;61.01;100303.28;5071406;27;45813;-80
2023/04/21 05:55:05;;;;;;;;;27.50;24.00;;;;;9.09;61.31;100297.00;5075025;28;45745;-81
2023/04/21 05:57:31;;;;;;;;;25.25;19.50;;;;;9.13;61.34;100305.44;5076859;28;45791;-78
2023/04/21 05:59:57;;;;;;;;;28.50;20.50;;;;;9.18;60.88;100301.56;5075669;28;46649;-82
2023/04/21 06:02:23;;;;;;;;;27.25;24.50;;;;;9.21;60.96;100298.75;5058212;28;47463;-77
2023/04/21 06:04:48;;;;;;;;;27.50;22.50;;;;;9.25;60.61;100299.38;5076966;28;45519;-75
2023/04/21 06:07:13;;;;;;;;;27.75;22.75;;;;;9.31;60.67;100306.78;5077038;28;45524;-77
2023/04/21 06:09:40;;;;;;;;;26.50;21.25;;;;;9.34;60.64;100296.09;5076207;28;45747;-74
2023/04/21 06:12:05;;;;;;;;;25.25;20.25;;;;;9.35;60.69;100289.91;5076404;28;47306;-74
2023/04/21 06:14:31;;;;;;;;;21.50;19.25;;;;;9.36;60.65;100296.00;5076302;28;45584;-77
2023/04/21 06:16:57;;;;;;;;;21.75;17.25;;;;;9.39;60.48;100295.78;5076245;28;45583;-78
2023/04/21 06:22:43;;;;;;;;;26.25;22.00;;;;;9.33;60.89;100291.00;5076355;28;46058;-79
2023/04/21 06:25:09;;;;;;;;;32.25;26.00;;;;;9.34;60.64;100303.13;5076355;28;45678;-80
2023/04/21 06:27:34;;;;;;;;;24.25;19.75;;;;;9.33;60.83;100291.00;5077013;28;45652;-78
2023/04/21 06:29:59;;;;;;;;;27.25;25.25;;;;;9.34;60.73;100284.81;5076332;28;46408;-79
2023/04/21 06:32:25;;;;;;;;;28.50;21.50;;;;;9.36;60.28;100299.44;5058610;28;45757;-77
2023/04/21 06:38:12;;;;;;;;;27.00;22.25;;;;;9.40;60.58;100290.44;5076538;28;45708;-77
2023/04/21 06:40:38;;;;;;;;;26.25;23.00;;;;;9.43;60.40;100297.22;5075121;28;47593;-80
2023/04/21 06:43:03;;;;;;;;;24.25;23.25;;;;;9.46;60.55;100283.94;5076277;28;45560;-82
2023/04/21 06:45:29;;;;;;;;;28.25;24.50;;;;;9.51;60.15;100287.88;5076387;28;45620;-80
2023/04/21 06:47:54;;;;;;;;;30.75;25.25;;;;;9.57;60.43;100287.44;5078049;28;45318;-80
2023/04/21 06:50:19;;;;;;;;;31.50;23.50;;;;;9.61;60.10;100281.03;5075904;28;46923;-77
2023/04/21 06:52:45;;;;;;;;;27.25;19.00;;;;;9.70;60.29;100290.03;5075743;28;45660;-76
2023/04/21 06:55:10;;;;;;;;;28.50;25.75;;;;;9.75;60.26;100287.91;5076898;28;45561;-75
2023/04/21 06:57:36;;;;;;;;;29.25;25.00;;;;;9.79;60.09;100289.34;5058550;28;45626;-79
2023/04/21 07:00:04;;;;;;;;;31.75;25.25;;;;;9.82;60.00;100283.91;5078438;28;47271;-79
2023/04/21 07:02:29;;;;;;;;;24.00;22.00;;;;;9.90;59.70;100291.16;5062515;28;48577;-79
2023/04/21 07:08:17;;;;;;;;;43.50;36.00;;;;;10.04;59.79;100283.97;5081340;28;45601;-77
2023/04/21 07:10:42;;;;;;;;;22.75;22.25;;;;;10.11;59.19;100297.44;5078633;28;46503;-74
2023/04/21 07:13:07;;;;;;;;;25.00;20.50;;;;;10.14;59.19;100285.91;5076394;28;45653;-79
2023/04/21 07:15:33;;;;;;;;;20.50;17.00;;;;;10.15;58.79;100270.06;5075663;28;45732;-74
2023/04/21 07:17:58;;;;;;;;;20.00;17.00;;;;;10.16;58.84;100277.03;5076032;28;45574;-80
2023/04/21 07:23:45;;;;;;;;;21.75;18.75;;;;;10.21;58.44;100274.88;5075608;28;46204;-75
2023/04/21 07:26:11;;;;;;;;;19.50;17.50;;;;;10.24;58.21;100271.22;5074202;28;46062;-77
2023/04/21 07:28:37;;;;;;;;;23.25;19.00;;;;;10.25;58.13;100272.91;5057389;28;45593;-75
2023/04/21 07:31:03;;;;;;;;;25.75;19.75;;;;;10.27;58.01;100269.19;5075605;28;46574;-76
2023/04/21 07:33:28;;;;;;;;;24.75;21.00;;;;;10.31;58.16;100265.38;5075404;28;45667;-80
2023/04/21 07:35:54;;;;;;;;;22.25;19.50;;;;;10.36;57.94;100268.53;5075413;28;45537;-78
2023/04/21 07:38:19;;;;;;;;;24.50;20.75;;;;;10.42;57.84;100265.41;5075483;28;46347;-79
2023/04/21 07:40:45;;;;;;;;;25.50;21.00;;;;;10.49;57.80;100257.94;5075526;28;45580;-75
2023/04/21 07:43:10;;;;;;;;;23.75;17.50;;;;;10.55;57.57;100264.50;5075559;28;45605;-80
2023/04/21 07:45:35;;;;;;;;;26.75;23.25;;;;;10.59;57.46;100263.28;5075346;28;45693;-77
2023/04/21 07:48:01;;;;;;;;;22.50;20.75;;;;;10.62;57.07;100255.22;5073817;28;45971;-76
2023/04/21 07:53:48;;;;;;;;;22.00;18.75;;;;;10.66;56.84;100260.09;5073603;28;45840;-78
2023/04/21 07:56:14;;;;;;;;;26.50;21.50;;;;;10.72;56.41;100269.28;5075447;28;45662;-78
2023/04/21 07:58:40;;;;;;;;;20.25;18.75;;;;;10.79;55.96;100266.06;5075598;28;45614;-75
2023/04/21 08:01:06;;;;;;;;;20.00;17.25;;;;;10.83;55.32;100261.41;5075258;28;46248;-80
2023/04/21 08:03:31;;;;;;;;;22.50;18.25;;;;;10.86;55.36;100259.38;5074827;28;45568;-79
2023/04/21 08:09:18;;;;;;;;;30.00;26.75;;;;;11.01;55.26;100259.16;5074973;28;45618;-77
2023/04/21 08:11:44;;;;;;;;;51.00;42.75;;;;;11.08;55.16;100257.69;5056660;28;47360;-73
2023/04/21 08:14:10;;;;;;;;;22.00;22.00;;;;;11.17;55.05;100251.75;5074562;28;46344;-80
2023/04/21 08:16:37;;;;;;;;;17.00;13.50;;;;;11.21;54.43;100246.13;5074367;28;45612;-78
2023/04/21 08:19:03;;;;;;;;;16.75;15.25;;;;;11.30;54.53;100249.81;5073304;28;45940;-80
2023/04/21 08:21:28;;;;;;;;;21.75;19.25;;;;;11.41;54.42;100249.78;5056324;28;48094;-78
2023/04/21 08:23:54;;;;;;;;;19.00;15.25;;;;;11.52;54.18;100252.38;5073274;28;46468;-74
2023/04/21 08:26:22;;;;;;;;;22.75;19.25;;;;;11.62;53.93;100250.66;5074763;28;45761;-78
2023/04/21 08:28:48;;;;;;;;;21.25;19.25;;;;;11.69;53.59;100249.22;5073365;28;45623;-79
2023/04/21 08:31:14;;;;;;;;;18.00;17.50;;;;;11.73;53.04;100240.16;5056100;28;48120;-76
2023/04/21 08:33:40;;;;;;;;;23.25;22.25;;;;;11.81;53.20;100243.97;5074163;28;46358;-73
2023/04/21 08:39:27;;;;;;;;;18.75;18.00;;;;;11.93;52.49;100245.59;5074488;28;45682;-74
2023/04/21 08:41:54;;;;;;;;;16.00;14.75;;;;;11.96;52.23;100251.41;5074043;28;46340;-74
2023/04/21 08:44:20;;;;;;;;;22.75;17.75;;;;;11.90;52.05;100251.09;5055917;28;48356;-81
2023/04/21 08:46:48;;;;;;;;;18.75;18.75;;;;;11.76;51.87;100247.81;5056106;28;45818;-80
2023/04/21 08:49:18;;;;;;;;;21.75;19.25;;;;;11.70;52.45;100257.94;5074578;28;45729;-77
2023/04/21 08:51:45;;;;;;;;;21.50;20.75;;;;;11.71;52.30;100257.00;5073864;28;46592;-78
2023/04/21 08:54:11;;;;;;;;;23.50;20.25;;;;;11.74;51.98;100257.59;5073737;28;46593;-80
2023/04/21 08:56:36;;;;;;;;;18.50;18.00;;;;;11.73;51.72;100247.22;5074038;28;45543;-78
2023/04/21 08:59:01;;;;;;;;;24.75;20.00;;;;;11.72;51.73;100248.97;5073347;28;45654;-78
2023/04/21 09:01:27;;;;;;;;;23.75;22.00;;;;;11.74;51.68;100257.59;5073917;28;45533;-81
2023/04/21 09:03:52;;;;;;;;;21.00;19.00;;;;;11.76;51.78;100249.59;5074959;28;45649;-78
2023/04/21 09:09:53;;;;;;;;;21.50;18.75;;;;;11.81;51.06;100241.34;5077172;28;45686;-78
2023/04/21 09:12:19;;;;;;;;;23.00;20.25;;;;;11.83;50.79;100249.91;5073747;28;47610;-75
2023/04/21 09:14:46;;;;;;;;;18.25;17.25;;;;;11.82;50.84;100243.00;5073643;28;46406;-77
2023/04/21 09:17:11;;;;;;;;;17.00;16.25;;;;;11.87;50.45;100246.09;5073542;28;45595;-74
2023/04/21 09:19:36;;;;;;;;;26.00;19.00;;;;;11.90;50.76;100248.44;5074075;28;45614;-75
2023/04/21 09:22:02;;;;;;;;;24.00;18.75;;;;;11.94;50.83;100255.09;5073549;28;47292;-77
2023/04/21 09:24:28;;;;;;;;;25.75;19.75;;;;;11.96;50.83;100251.41;5073311;28;46405;-77
2023/04/21 09:26:53;;;;;;;;;21.00;19.25;;;;;11.99;50.79;100251.16;5073833;28;45674;-74
2023/04/21 09:29:23;;;;;;;;;22.50;19.75;;;;;12.06;50.84;100251.47;5056493;28;45594;-74
2023/04/21 09:31:50;;;;;;;;;24.25;21.50;;;;;12.09;50.57;100252.03;5058827;28;47159;-78
2023/04/21 09:34:23;;;;;;;;;21.50;20.25;;;;;12.11;50.96;100254.56;5077277;28;47546;-81
2023/04/21 09:40:16;;;;;;;;;23.75;22.75;;;;;12.12;50.92;100253.59;5077266;28;45522;-77
2023/04/21 09:42:42;;;;;;;;;23.00;19.00;;;;;12.14;50.50;100246.44;5077010;28;46946;-80
2023/04/21 09:45:11;;;;;;;;;22.75;20.75;;;;;12.15;50.05;100254.16;5077039;28;46991;-80
2023/04/21 09:47:41;;;;;;;;;25.75;20.50;;;;;12.15;49.71;100248.06;5076957;28;45893;-79
2023/04/21 09:50:10;;;;;;;;;27.00;23.25;;;;;12.09;50.15;100246.78;5077437;28;45759;-75
2023/04/21 09:52:37;;;;;;;;;28.00;21.75;;;;;12.11;50.04;100247.50;5077188;28;46431;-73
2023/04/21 09:55:09;;;;;;;;;23.00;20.00;;;;;12.18;50.03;100243.44;5077067;28;46252;-76
2023/04/21 09:57:37;;;;;;;;;23.25;21.00;;;;;12.22;49.79;100237.91;5058494;28;45835;-77
2023/04/21 10:00:08;;;;;;;;;22.50;20.25;;;;;12.25;49.97;100243.75;5076925;28;45677;-80
2023/04/21 10:02:36;;;;;;;;;22.50;20.25;;;;;12.30;49.50;100240.72;5076754;28;47690;-80
2023/04/21 10:05:05;;;;;;;;;24.00;22.00;;;;;12.32;49.55;100241.41;5058348;28;47300;-81
2023/04/21 10:07:30;;;;;;;;;20.25;19.50;;;;;12.31;49.33;100243.22;5075223;28;45962;-81
2023/04/21 10:09:58;;;;;;;;;30.50;26.00;;;;;12.34;49.18;100240.34;5076876;28;45928;-78
2023/04/21 10:12:25;;;;;;;;;21.00;21.00;;;;;12.41;49.13;100232.78;5076888;28;46834;-76
2023/04/21 10:14:52;;;;;;;;;22.00;20.50;;;;;12.49;49.24;100236.41;5076486;28;46380;-78
2023/04/21 10:17:22;;;;;;;;;17.00;16.50;;;;;12.55;48.72;100230.63;5076873;28;45466;-75
2023/04/21 10:26:34;;;;;;;;;26.50;22.25;;;;;12.82;48.75;100229.22;5076169;28;46216;-83
2023/04/21 10:29:05;;;;;;;;;27.25;23.75;;;;;12.87;48.90;100221.78;5076318;28;45699;-76
2023/04/21 10:31:42;;;;;;;;;26.75;24.50;;;;;12.90;48.88;100222.31;5076581;28;45596;-76
2023/04/21 10:34:07;;;;;;;;;27.25;25.25;;;;;12.94;48.63;100222.91;5076138;28;46505;-78
2023/04/21 10:36:45;;;;;;;;;23.75;22.00;;;;;12.94;48.65;100217.66;5075790;28;45635;-78
2023/04/21 10:39:23;;;;;;;;;28.00;25.50;;;;;12.97;48.28;100218.22;5076468;28;45921;-76
2023/04/21 10:41:50;;;;;;;;;23.75;22.50;;;;;12.99;48.21;100213.66;5057747;28;45745;-81
2023/04/21 10:44:16;;;;;;;;;22.50;21.25;;;;;13.02;48.31;100223.91;5058081;28;46384;-78
2023/04/21 10:46:46;;;;;;;;;26.75;22.75;;;;;13.07;48.27;100212.13;5076156;28;46762;-75
2023/04/21 10:49:26;;;;;;;;;21.75;20.00;;;;;13.13;48.24;100206.38;5076085;28;45887;-81
2023/04/21 10:52:04;;;;;;;;;27.50;23.75;;;;;13.16;47.24;100201.69;5058736;28;45876;-76
2023/04/21 10:54:46;;;;;;;;;22.75;22.25;;;;;13.09;47.36;100210.22;5075765;28;45670;-76
2023/04/21 10:57:13;;;;;;;;;24.50;21.50;;;;;13.08;47.55;100201.50;5075694;28;46181;-80
2023/04/21 10:59:39;;;;;;;;;25.25;22.25;;;;;13.12;47.16;100199.47;5076153;28;45639;-79
2023/04/21 11:02:11;;;;;;;;;22.00;20.75;;;;;13.08;46.79;100209.38;5076006;28;45730;-79
2023/04/21 11:04:40;;;;;;;;;25.75;24.50;;;;;13.13;47.42;100204.56;5075905;28;46707;-79
2023/04/21 11:07:12;;;;;;;;;24.75;22.25;;;;;13.20;47.10;100187.28;5075755;28;46182;-74
2023/04/21 11:09:39;;;;;;;;;26.75;23.00;;;;;13.30;46.66;100192.56;5058030;28;45924;-80
2023/04/21 11:12:08;;;;;;;;;25.25;23.00;;;;;13.31;46.64;100184.53;5076092;28;45779;-77
2023/04/21 11:14:36;;;;;;;;;23.00;21.50;;;;;13.29;46.85;100178.56;5057234;28;47412;-79
2023/04/21 11:17:09;;;;;;;;;27.50;23.25;;;;;13.35;47.00;100179.81;5075668;28;46003;-79
2023/04/21 11:19:35;;;;;;;;;24.00;21.50;;;;;13.41;46.86;100184.53;5075427;28;45509;-74
2023/04/21 11:22:03;;;;;;;;;29.00;26.50;;;;;13.47;47.13;100175.25;5080821;28;45518;-76
2023/04/21 11:24:28;;;;;;;;;29.00;24.75;;;;;13.54;46.65;100190.38;5076752;28;48295;-79
2023/04/21 11:26:54;;;;;;;;;30.50;23.75;;;;;13.54;46.56;100185.13;5056835;28;46891;-78
2023/04/21 11:29:19;;;;;;;;;25.75;25.50;;;;;13.55;46.38;100181.50;5074048;28;45633;-77
2023/04/21 11:31:49;;;;;;;;;24.00;23.75;;;;;13.45;46.06;100183.28;5076451;28;45851;-75
2023/04/21 11:34:15;;;;;;;;;27.00;22.75;;;;;13.45;46.15;100178.03;5076454;28;45584;-79
2023/04/21 11:36:46;;;;;;;;;21.25;20.75;;;;;13.36;45.76;100182.31;5074753;28;46303;-78
2023/04/21 11:39:14;;;;;;;;;29.00;26.75;;;;;13.30;45.73;100189.94;5075026;28;45823;-73
2023/04/21 11:41:42;;;;;;;;;24.00;22.25;;;;;13.24;45.92;100186.03;5075341;28;45902;-76
2023/04/21 11:44:09;;;;;;;;;21.00;18.25;;;;;13.24;46.46;100185.22;5074952;28;47419;-78
2023/04/21 11:46:37;;;;;;;;;24.50;21.75;;;;;13.31;46.18;100186.34;5075196;28;46113;-77
2023/04/21 11:49:10;;;;;;;;;28.50;22.50;;;;;13.32;45.91;100188.84;5056703;28;45669;-73
2023/04/21 11:51:38;;;;;;;;;23.25;22.25;;;;;13.39;45.94;100181.22;5089871;27;45737;-78
2023/04/21 11:54:06;;;;;;;;;27.75;22.75;;;;;13.47;45.91;100183.16;5074618;28;46381;-74
2023/04/21 11:56:42;;;;;;;;;25.25;24.25;;;;;13.51;45.52;100190.63;5074874;28;46680;-75
2023/04/21 11:59:12;;;;;;;;;27.00;25.25;;;;;13.57;45.39;100184.81;5074654;28;45565;-72
2023/04/21 12:01:44;;;;;;;;;23.75;21.50;;;;;13.57;45.40;100176.94;5090494;27;45829;-73
2023/04/21 12:04:23;;;;;;;;;25.50;22.25;;;;;13.70;45.33;100179.28;5074372;28;47041;-75
2023/04/21 12:07:01;;;;;;;;;23.25;21.75;;;;;13.81;45.58;100176.50;5074402;28;47261;-73
2023/04/21 12:09:28;;;;;;;;;26.00;22.00;;;;;13.88;44.74;100183.69;5074661;28;45640;-75
2023/04/21 12:11:56;;;;;;;;;25.50;20.50;;;;;13.92;44.34;100186.91;5074618;28;45862;-73
2023/04/21 12:14:22;;;;;;;;;21.25;19.75;;;;;13.94;44.01;100179.66;5074464;28;45699;-77
2023/04/21 12:16:53;;;;;;;;;20.75;18.50;;;;;13.97;44.22;100186.47;5074871;28;46276;-78
2023/04/21 12:19:22;;;;;;;;;24.50;21.00;;;;;13.96;44.08;100185.63;5074705;28;45920;-81
2023/04/21 12:21:57;;;;;;;;;28.50;23.75;;;;;13.97;43.83;100184.66;5074689;28;45838;-79
2023/04/21 12:24:23;;;;;;;;;20.75;19.25;;;;;13.97;43.90;100179.41;5074419;28;46522;-78
2023/04/21 12:26:48;;;;;;;;;20.00;19.00;;;;;14.05;43.06;100178.69;5056070;28;47200;-76
2023/04/21 12:29:13;;;;;;;;;21.00;17.50;;;;;14.04;43.15;100179.66;5074575;28;46022;-75
2023/04/21 12:31:39;;;;;;;;;20.25;18.75;;;;;14.07;43.01;100177.56;5074775;28;45792;-75
2023/04/21 12:34:04;;;;;;;;;20.00;18.00;;;;;14.13;43.00;100178.81;5074446;28;46415;-76
2023/04/21 12:36:30;;;;;;;;;21.50;19.50;;;;;14.19;42.77;100180.88;5074204;28;46450;-77
2023/04/21 12:38:56;;;;;;;;;24.75;19.50;;;;;14.24;42.33;100184.75;5074466;28;45679;-74
2023/04/21 12:41:21;;;;;;;;;20.00;19.25;;;;;14.30;42.15;100175.44;5056125;28;45596;-79
2023/04/21 12:43:46;;;;;;;;;17.50;15.50;;;;;14.35;42.15;100175.84;5074298;28;46230;-76